Time;durP1;ratioP1;P1;durP2;ratioP2;P2;SDS_P1;SDS_P2;PMS_P1;PMS_P2;Temp;Humidity;BMP_temperature;BMP_pressure;BME280_temperature;BME280_humidity;BME280_pressure;Samples;Min_cycle;Max_cycle;Signal;HPM_P1;HPM_P2
2023/04/29 00:00:36;;;;;;;35.40;19.95;;;;;;;9.33;100.00;101232.00;5029449;28;20132;-54
2023/04/29 00:03:05;;;;;;;35.45;20.20;;;;;;;9.35;100.00;101238.84;5029701;28;20076;-53
2023/04/29 00:05:34;;;;;;;37.90;23.45;;;;;;;9.27;100.00;101239.28;5028324;28;20053;-53
2023/04/29 00:08:03;;;;;;;39.13;22.83;;;;;;;9.17;100.00;101238.06;5028916;28;20117;-53
2023/04/29 00:10:35;;;;;;;37.17;21.52;;;;;;;9.16;100.00;101231.09;5030035;28;20045;-54
2023/04/29 00:13:03;;;;;;;37.25;22.42;;;;;;;9.14;100.00;101235.59;5028606;28;20058;-53
2023/04/29 00:15:34;;;;;;;37.70;21.25;;;;;;;9.12;100.00;101242.69;5031068;28;20095;-52
2023/04/29 00:18:02;;;;;;;35.78;21.08;;;;;;;9.16;100.00;101244.22;5030970;28;20049;-53
2023/04/29 00:20:31;;;;;;;39.53;22.67;;;;;;;9.13;100.00;101241.78;5027615;28;20413;-54
2023/04/29 00:22:59;;;;;;;39.78;21.45;;;;;;;9.19;100.00;101249.34;5031248;28;20095;-52
2023/04/29 00:25:27;;;;;;;37.97;22.60;;;;;;;9.16;100.00;101249.47;5029437;28;20068;-52
2023/04/29 00:28:00;;;;;;;38.60;21.58;;;;;;;9.14;100.00;101253.97;5028984;28;20404;-52
2023/04/29 00:30:28;;;;;;;39.80;22.33;;;;;;;9.05;100.00;101254.44;5028879;28;20060;-54
2023/04/29 00:32:56;;;;;;;40.33;21.75;;;;;;;9.05;100.00;101259.69;5029031;28;20136;-52
2023/04/29 00:35:25;;;;;;;39.88;21.27;;;;;;;9.10;100.00;101270.81;5028278;28;20103;-53
2023/04/29 00:37:54;;;;;;;37.75;22.25;;;;;;;9.04;100.00;101271.09;5028659;28;20053;-52
2023/04/29 00:40:22;;;;;;;39.67;21.90;;;;;;;9.09;100.00;101271.72;5030809;28;20566;-54
2023/04/29 00:42:50;;;;;;;38.25;22.15;;;;;;;9.07;100.00;101277.06;5030753;28;20128;-55
2023/04/29 00:45:18;;;;;;;38.67;23.45;;;;;;;9.02;100.00;101278.22;5029065;28;20060;-52
2023/04/29 00:47:47;;;;;;;36.72;22.55;;;;;;;9.04;100.00;101274.59;5028908;28;20110;-53
2023/04/29 00:50:15;;;;;;;42.88;22.23;;;;;;;9.08;100.00;101264.78;5032441;28;20049;-54
2023/04/29 00:52:47;;;;;;;33.78;20.30;;;;;;;9.05;100.00;101280.69;5031864;28;20374;-53
2023/04/29 00:55:17;;;;;;;37.03;21.58;;;;;;;9.04;100.00;101279.84;5029214;28;20099;-53
2023/04/29 00:57:47;;;;;;;38.88;22.40;;;;;;;9.10;100.00;101283.94;5029158;28;20042;-53
2023/04/29 01:00:16;;;;;;;33.58;20.90;;;;;;;9.13;100.00;101279.38;5032085;28;20064;-51
2023/04/29 01:02:44;;;;;;;34.97;20.35;;;;;;;9.10;100.00;101283.94;5031978;28;20456;-52
2023/04/29 01:05:13;;;;;;;32.35;20.33;;;;;;;9.12;100.00;101290.78;5027465;28;20060;-50
2023/04/29 01:07:49;;;;;;;33.15;20.38;;;;;;;9.14;100.00;101290.72;5026947;28;20519;-53
2023/04/29 01:10:26;;;;;;;32.28;20.15;;;;;;;9.11;100.00;101275.97;5029083;28;20053;-53
2023/04/29 01:13:06;;;;;;;37.17;20.20;;;;;;;9.09;100.00;101290.09;5032239;28;20370;-53
2023/04/29 01:15:41;;;;;;;35.45;19.80;;;;;;;9.13;100.00;101289.88;5031056;28;20049;-53
2023/04/29 01:18:15;;;;;;;32.47;19.45;;;;;;;9.17;100.00;101300.19;5028583;28;20424;-53
2023/04/29 01:20:44;;;;;;;33.25;20.17;;;;;;;9.17;100.00;101301.03;5026816;28;20045;-52
2023/04/29 01:23:12;;;;;;;33.83;19.10;;;;;;;9.18;100.00;101300.13;5028566;28;20046;-51
2023/04/29 01:25:42;;;;;;;31.25;18.27;;;;;;;9.10;100.00;101299.66;5028372;28;20053;-48
2023/04/29 01:28:20;;;;;;;30.48;18.85;;;;;;;9.12;100.00;101309.16;5030979;28;20128;-49
2023/04/29 01:31:00;;;;;;;31.13;18.92;;;;;;;9.05;100.00;101312.16;5028117;28;20054;-50
2023/04/29 01:33:39;;;;;;;30.90;18.67;;;;;;;9.06;100.00;101313.88;5035250;28;20496;-53
2023/04/29 01:36:17;;;;;;;33.67;19.15;;;;;;;8.99;100.00;101313.34;5030299;28;20049;-53
2023/04/29 01:38:53;;;;;;;32.60;18.38;;;;;;;8.98;100.00;101316.03;5032637;28;20103;-52
2023/04/29 01:41:31;;;;;;;32.60;18.95;;;;;;;8.89;100.00;101314.72;5032726;28;20455;-53
2023/04/29 01:44:03;;;;;;;32.97;19.75;;;;;;;8.84;100.00;101322.81;5032960;28;20525;-51
2023/04/29 01:46:32;;;;;;;33.53;18.77;;;;;;;8.88;100.00;101319.13;5033094;28;20132;-52
2023/04/29 01:49:00;;;;;;;33.20;19.75;;;;;;;8.83;100.00;101325.53;5036075;28;20048;-53
2023/04/29 01:51:28;;;;;;;33.35;18.45;;;;;;;8.89;100.00;101328.69;5036020;28;20041;-51
2023/04/29 01:53:57;;;;;;;30.10;18.73;;;;;;;8.91;100.00;101331.25;5035892;28;20080;-54
2023/04/29 01:56:26;;;;;;;29.80;17.83;;;;;;;8.85;100.00;101332.41;5035904;28;20060;-53
2023/04/29 01:58:54;;;;;;;31.88;17.65;;;;;;;8.85;100.00;101339.41;5035827;28;20065;-53
2023/04/29 02:01:22;;;;;;;32.30;18.70;;;;;;;8.88;100.00;101334.88;5034392;28;20045;-54
2023/04/29 02:03:54;;;;;;;31.20;18.83;;;;;;;8.84;100.00;101329.88;5033804;28;20076;-53
2023/04/29 02:06:23;;;;;;;32.67;18.33;;;;;;;8.88;100.00;101328.78;5030644;28;20108;-54
2023/04/29 02:08:51;;;;;;;29.00;17.90;;;;;;;8.86;100.00;101331.47;5034411;28;20107;-53
2023/04/29 02:11:19;;;;;;;33.65;18.60;;;;;;;8.86;100.00;101334.09;5032417;28;20399;-54
2023/04/29 02:13:51;;;;;;;27.38;17.23;;;;;;;8.93;100.00;101340.75;5032687;28;20037;-53
2023/04/29 02:16:19;;;;;;;35.75;19.02;;;;;;;8.90;100.00;101337.41;5035576;28;20095;-54
2023/04/29 02:18:48;;;;;;;29.08;18.35;;;;;;;8.88;100.00;101336.66;5033363;28;20433;-51
2023/04/29 02:21:16;;;;;;;32.90;17.50;;;;;;;8.84;100.00;101349.06;5030223;28;20037;-54
2023/04/29 02:23:44;;;;;;;29.95;17.58;;;;;;;8.75;100.00;101353.00;5034064;28;20084;-53
2023/04/29 02:26:14;;;;;;;35.17;19.13;;;;;;;8.80;100.00;101352.75;5035369;28;20362;-53
2023/04/29 02:28:43;;;;;;;31.98;17.67;;;;;;;8.87;100.00;101356.75;5035126;28;20057;-54
2023/04/29 02:31:12;;;;;;;31.48;16.67;;;;;;;8.90;100.00;101355.78;5035371;28;20144;-53
2023/04/29 02:33:41;;;;;;;30.92;16.20;;;;;;;8.86;100.00;101357.72;5035069;28;20045;-52
2023/04/29 02:36:09;;;;;;;26.05;14.73;;;;;;;8.89;100.00;101367.19;5035398;28;20050;-53
2023/04/29 02:38:37;;;;;;;24.55;15.07;;;;;;;8.92;100.00;101370.50;5034906;28;20490;-53
2023/04/29 02:41:05;;;;;;;25.83;14.85;;;;;;;8.91;100.00;101367.97;5031644;28;20084;-54
2023/04/29 02:43:33;;;;;;;27.48;15.77;;;;;;;8.84;100.00;101371.81;5031383;28;20069;-53
2023/04/29 02:46:01;;;;;;;28.23;15.93;;;;;;;8.84;100.00;101379.69;5030241;28;20529;-51
2023/04/29 02:48:33;;;;;;;25.80;15.52;;;;;;;8.91;100.00;101383.72;5031638;28;20517;-52
2023/04/29 02:51:01;;;;;;;27.33;15.75;;;;;;;8.94;100.00;101392.28;5029745;28;20519;-53
2023/04/29 02:53:29;;;;;;;28.60;16.70;;;;;;;8.92;100.00;101396.75;5032293;28;20062;-53
2023/04/29 02:55:57;;;;;;;27.58;15.75;;;;;;;8.92;100.00;101393.28;5032041;28;20053;-53
2023/04/29 02:58:25;;;;;;;31.10;17.40;;;;;;;8.87;100.00;101398.72;5031900;28;20080;-54
2023/04/29 03:00:56;;;;;;;28.25;16.00;;;;;;;8.88;100.00;101397.81;5030901;28;20103;-53
2023/04/29 03:03:24;;;;;;;28.80;15.93;;;;;;;8.91;100.00;101397.66;5030782;28;20049;-54
2023/04/29 03:05:54;;;;;;;28.85;16.27;;;;;;;8.91;100.00;101402.91;5029422;28;20053;-54
2023/04/29 03:08:23;;;;;;;28.10;15.80;;;;;;;8.93;100.00;101397.56;5032313;28;20054;-53
2023/04/29 03:10:51;;;;;;;28.65;16.55;;;;;;;8.88;100.00;101402.22;5034524;28;20103;-53
2023/04/29 03:13:19;;;;;;;26.48;15.95;;;;;;;8.85;100.00;101397.97;5032364;28;20107;-53
2023/04/29 03:15:48;;;;;;;28.38;16.00;;;;;;;8.86;100.00;101402.31;5030263;28;20627;-52
2023/04/29 03:18:16;;;;;;;27.63;15.80;;;;;;;8.87;100.00;101406.59;5033909;28;20064;-52
2023/04/29 03:20:44;;;;;;;26.17;15.13;;;;;;;8.83;100.00;101410.31;5028683;28;20046;-52
2023/04/29 03:23:13;;;;;;;28.85;16.52;;;;;;;8.80;100.00;101413.09;5029930;28;20045;-53
2023/04/29 03:25:44;;;;;;;27.47;15.97;;;;;;;8.79;100.00;101416.63;5029992;28;20068;-52
2023/04/29 03:28:12;;;;;;;29.38;15.68;;;;;;;8.79;100.00;101414.88;5033718;28;20860;-52
2023/04/29 03:30:40;;;;;;;25.63;15.75;;;;;;;8.71;100.00;101408.28;5030226;28;20137;-50
2023/04/29 03:33:08;;;;;;;28.83;16.05;;;;;;;8.76;100.00;101414.16;5031071;28;20050;-50
2023/04/29 03:35:36;;;;;;;27.38;15.95;;;;;;;8.76;100.00;101416.78;5031915;28;20148;-51
2023/04/29 03:38:04;;;;;;;32.33;16.23;;;;;;;8.79;100.00;101412.25;5029653;28;20099;-52
2023/04/29 03:40:34;;;;;;;27.15;14.95;;;;;;;8.81;100.00;101412.16;5029644;28;20057;-59
2023/04/29 03:43:02;;;;;;;28.90;16.17;;;;;;;8.79;100.00;101411.38;5029823;28;20049;-59
2023/04/29 03:45:30;;;;;;;26.10;15.45;;;;;;;8.76;100.00;101406.28;5031582;28;20437;-59
2023/04/29 03:47:58;;;;;;;27.42;16.17;;;;;;;8.74;100.00;101419.47;5031329;28;20136;-59
2023/04/29 03:50:26;;;;;;;28.65;16.23;;;;;;;8.73;100.00;101422.19;5030546;28;20080;-59
2023/04/29 03:52:54;;;;;;;26.85;15.98;;;;;;;8.77;100.00;101424.56;5032013;28;20050;-59
2023/04/29 03:55:23;;;;;;;30.23;15.60;;;;;;;8.77;100.00;101427.19;5030467;28;20998;-59
2023/04/29 03:57:52;;;;;;;26.92;16.10;;;;;;;8.73;100.00;101436.13;5030540;28;20092;-59
2023/04/29 04:00:20;;;;;;;25.98;15.30;;;;;;;8.74;100.00;101429.97;5031279;28;20041;-59
2023/04/29 04:02:48;;;;;;;26.58;15.18;;;;;;;8.78;100.00;101431.53;5031453;28;20385;-60
2023/04/29 04:05:18;;;;;;;28.38;15.98;;;;;;;8.78;100.00;101446.38;5033749;28;20047;-59
2023/04/29 04:07:46;;;;;;;28.45;16.20;;;;;;;8.72;100.00;101446.69;5033563;28;20049;-58
2023/04/29 04:10:14;;;;;;;24.65;15.40;;;;;;;8.74;100.00;101450.09;5031754;28;20076;-58
2023/04/29 04:12:42;;;;;;;28.15;15.35;;;;;;;8.72;100.00;101446.69;5031335;28;20045;-60
2023/04/29 04:15:12;;;;;;;26.35;15.27;;;;;;;8.74;100.00;101450.09;5033530;28;20049;-59
2023/04/29 04:17:43;;;;;;;25.90;15.87;;;;;;;8.73;100.00;101458.91;5033426;28;20045;-59
2023/04/29 04:20:12;;;;;;;26.88;14.70;;;;;;;8.76;100.00;101456.13;5030357;28;20052;-59
2023/04/29 04:22:40;;;;;;;24.55;14.80;;;;;;;8.75;100.00;101465.78;5030333;28;20052;-59
2023/04/29 04:25:10;;;;;;;24.63;15.30;;;;;;;8.72;100.00;101465.91;5030432;28;20045;-59
2023/04/29 04:27:38;;;;;;;23.95;14.85;;;;;;;8.67;100.00;101465.28;5030462;28;20115;-59
2023/04/29 04:30:07;;;;;;;23.48;14.50;;;;;;;8.69;100.00;101468.66;5029043;28;20053;-59
2023/04/29 04:32:38;;;;;;;23.08;14.95;;;;;;;8.75;100.00;101480.63;5030492;28;20068;-60
2023/04/29 04:35:07;;;;;;;25.65;14.43;;;;;;;8.77;100.00;101473.56;5032794;28;20037;-59
2023/04/29 04:37:35;;;;;;;22.95;13.98;;;;;;;8.83;100.00;101485.53;5033068;28;20057;-59
2023/04/29 04:40:03;;;;;;;25.60;14.30;;;;;;;8.78;100.00;101483.09;5031595;28;20448;-58
2023/04/29 04:42:31;;;;;;;26.40;13.60;;;;;;;8.77;100.00;101492.75;5032632;28;20057;-59
2023/04/29 04:44:59;;;;;;;21.20;13.75;;;;;;;8.75;100.00;101493.75;5030467;28;20037;-60
2023/04/29 04:47:27;;;;;;;24.30;14.68;;;;;;;8.70;100.00;101490.50;5029415;28;20049;-60
2023/04/29 04:49:57;;;;;;;26.25;14.75;;;;;;;8.76;100.00;101490.22;5029265;28;20701;-60
2023/04/29 04:52:25;;;;;;;23.85;14.85;;;;;;;8.78;100.00;101498.84;5029873;28;20749;-60
2023/04/29 04:54:53;;;;;;;24.05;14.43;;;;;;;8.80;100.00;101497.00;5030227;28;20096;-60
2023/04/29 04:57:22;;;;;;;22.17;14.10;;;;;;;8.75;100.00;101499.00;5030286;28;20065;-60
2023/04/29 04:59:50;;;;;;;22.42;14.63;;;;;;;8.76;100.00;101509.41;5029777;28;20500;-60
2023/04/29 05:02:18;;;;;;;22.02;13.98;;;;;;;8.70;100.00;101506.22;5030125;28;20719;-59
2023/04/29 05:04:47;;;;;;;23.73;14.23;;;;;;;8.74;100.00;101511.28;5028708;28;20068;-59
2023/04/29 05:07:16;;;;;;;22.80;14.07;;;;;;;8.76;100.00;101519.91;5029642;28;20053;-59
2023/04/29 05:09:44;;;;;;;21.17;14.00;;;;;;;8.77;100.00;101518.16;5031444;28;20049;-59
2023/04/29 05:12:12;;;;;;;22.67;14.98;;;;;;;8.78;100.00;101522.44;5032551;28;20104;-61
2023/04/29 05:14:40;;;;;;;26.92;15.25;;;;;;;8.69;100.00;101507.16;5030046;28;20064;-60
2023/04/29 05:17:10;;;;;;;24.05;15.07;;;;;;;8.74;100.00;101521.75;5030157;28;20430;-60
2023/04/29 05:19:41;;;;;;;22.25;14.60;;;;;;;8.75;100.00;101519.97;5029756;28;20543;-60
2023/04/29 05:22:09;;;;;;;24.52;15.18;;;;;;;8.80;100.00;101531.09;5029632;28;20053;-60
2023/04/29 05:24:38;;;;;;;23.83;15.35;;;;;;;8.81;100.00;101535.44;5029957;28;20045;-60
2023/04/29 05:27:06;;;;;;;23.88;16.00;;;;;;;8.88;100.00;101534.22;5030590;28;20067;-60
2023/04/29 05:29:37;;;;;;;25.23;14.73;;;;;;;8.86;100.00;101543.09;5031866;28;20056;-60
2023/04/29 05:32:05;;;;;;;23.90;15.27;;;;;;;8.87;100.00;101535.13;5029949;28;20064;-60
2023/04/29 05:34:33;;;;;;;23.55;14.38;;;;;;;8.91;100.00;101536.69;5031135;28;20045;-60
2023/04/29 05:37:02;;;;;;;22.10;14.65;;;;;;;8.94;100.00;101540.94;5032486;28;20088;-60
2023/04/29 05:39:30;;;;;;;22.27;14.98;;;;;;;8.92;100.00;101541.03;5032431;28;20496;-60
2023/04/29 05:42:01;;;;;;;20.83;13.93;;;;;;;8.99;100.00;101549.47;5030621;28;20472;-60
2023/04/29 05:44:29;;;;;;;22.45;14.35;;;;;;;8.98;100.00;101549.53;5030842;28;20057;-59
2023/04/29 05:46:57;;;;;;;23.13;13.90;;;;;;;9.01;100.00;101552.00;5032522;28;20488;-59
2023/04/29 05:49:25;;;;;;;23.08;14.40;;;;;;;9.03;100.00;101560.66;5030507;28;20594;-59
2023/04/29 05:51:53;;;;;;;21.35;14.88;;;;;;;9.07;100.00;101564.84;5029781;28;20140;-60
2023/04/29 05:54:22;;;;;;;21.52;15.00;;;;;;;9.10;100.00;101564.69;5031789;28;20060;-60
2023/04/29 05:56:52;;;;;;;22.00;14.63;;;;;;;9.11;100.00;101569.03;5029970;28;20048;-60
2023/04/29 05:59:22;;;;;;;22.90;14.52;;;;;;;9.21;100.00;101570.28;5029911;28;20124;-60
2023/04/29 06:01:50;;;;;;;23.15;14.70;;;;;;;9.24;100.00;101579.78;5029521;28;20570;-60
2023/04/29 06:04:18;;;;;;;21.05;14.23;;;;;;;9.28;100.00;101581.34;5028786;28;20775;-60
2023/04/29 06:06:46;;;;;;;22.13;14.35;;;;;;;9.29;100.00;101589.13;5028964;28;20093;-60
2023/04/29 06:09:15;;;;;;;23.50;13.38;;;;;;;9.30;100.00;101577.72;5029837;28;20041;-60
2023/04/29 06:11:54;;;;;;;25.08;15.02;;;;;;;9.26;100.00;101584.03;5030715;28;20112;-60
2023/04/29 06:14:24;;;;;;;21.73;14.50;;;;;;;9.30;100.00;101587.38;5029574;28;20547;-60
2023/04/29 06:16:52;;;;;;;22.38;15.18;;;;;;;9.35;100.00;101585.34;5029204;28;20133;-60
2023/04/29 06:19:20;;;;;;;21.67;14.63;;;;;;;9.35;100.00;101595.84;5032246;28;20103;-59
2023/04/29 06:21:49;;;;;;;23.65;14.05;;;;;;;9.44;100.00;101591.97;5035881;28;20041;-62
2023/04/29 06:24:17;;;;;;;25.40;15.18;;;;;;;9.42;100.00;101604.28;5035324;28;20041;-59
2023/04/29 06:26:45;;;;;;;24.13;15.70;;;;;;;9.44;100.00;101605.09;5033264;28;20076;-59
2023/04/29 06:29:13;;;;;;;24.30;15.35;;;;;;;9.44;100.00;101612.97;5033342;28;20045;-60
2023/04/29 06:31:43;;;;;;;22.85;15.45;;;;;;;9.46;100.00;101616.34;5033835;28;20835;-60
2023/04/29 06:34:11;;;;;;;20.98;14.25;;;;;;;9.46;100.00;101624.22;5033193;28;20536;-60
2023/04/29 06:36:40;;;;;;;21.60;14.13;;;;;;;9.54;100.00;101623.88;5032976;28;20087;-60
2023/04/29 06:39:08;;;;;;;21.92;14.70;;;;;;;9.59;100.00;101627.13;5033464;28;20128;-60
2023/04/29 06:41:36;;;;;;;22.77;14.95;;;;;;;9.58;100.00;101626.25;5033661;28;20084;-61
2023/04/29 06:44:05;;;;;;;24.98;14.75;;;;;;;9.62;100.00;101624.34;5033539;28;20047;-61
2023/04/29 06:46:33;;;;;;;23.60;14.25;;;;;;;9.70;100.00;101639.75;5033591;28;20045;-60
2023/04/29 06:49:02;;;;;;;23.50;15.18;;;;;;;9.76;100.00;101629.78;5032829;28;20041;-60
2023/04/29 06:51:31;;;;;;;20.90;14.77;;;;;;;9.75;100.00;101635.97;5033251;28;20435;-60
2023/04/29 06:53:59;;;;;;;23.20;13.73;;;;;;;9.82;100.00;101645.22;5032894;28;20049;-60
2023/04/29 06:56:27;;;;;;;23.73;14.55;;;;;;;9.88;100.00;101645.84;5032509;28;20137;-60
2023/04/29 06:58:55;;;;;;;25.02;14.73;;;;;;;9.89;100.00;101655.44;5034351;28;20045;-60
2023/04/29 07:01:23;;;;;;;25.20;15.00;;;;;;;9.91;100.00;101657.06;5032704;28;20057;-60
2023/04/29 07:03:51;;;;;;;20.25;13.65;;;;;;;10.00;100.00;101658.38;5032141;28;20116;-60
2023/04/29 07:06:21;;;;;;;22.05;13.70;;;;;;;10.06;100.00;101665.09;5031576;28;20477;-60
2023/04/29 07:08:50;;;;;;;22.40;13.13;;;;;;;10.10;100.00;101667.53;5032136;28;20073;-60
2023/04/29 07:11:23;;;;;;;21.88;13.25;;;;;;;10.13;100.00;101674.41;5032368;28;20050;-60
2023/04/29 07:13:53;;;;;;;22.13;13.13;;;;;;;10.14;100.00;101679.59;5032456;28;20053;-60
2023/04/29 07:16:25;;;;;;;21.52;13.13;;;;;;;10.20;100.00;101686.31;5032686;28;20046;-60
2023/04/29 07:18:54;;;;;;;23.90;13.15;;;;;;;10.34;100.00;101682.13;5032588;28;20049;-61
2023/04/29 07:21:23;;;;;;;19.70;13.02;;;;;;;10.41;100.00;101678.28;5031980;28;20451;-60
2023/04/29 07:23:51;;;;;;;21.23;12.95;;;;;;;10.42;100.00;101690.53;5034010;28;20049;-60
2023/04/29 07:26:20;;;;;;;22.05;13.98;;;;;;;10.56;100.00;101693.28;5034300;28;20049;-60
2023/04/29 07:28:48;;;;;;;18.95;12.75;;;;;;;10.58;100.00;101701.09;5030563;28;20049;-60
2023/04/29 07:31:16;;;;;;;21.50;12.85;;;;;;;10.64;100.00;101698.16;5033234;28;20056;-60
2023/04/29 07:33:46;;;;;;;19.58;11.80;;;;;;;10.71;100.00;101693.41;5031798;28;20081;-60
2023/04/29 07:36:14;;;;;;;24.92;11.90;;;;;;;10.93;100.00;101691.34;5031371;28;20041;-61
2023/04/29 07:38:44;;;;;;;18.27;11.23;;;;;;;10.99;100.00;101696.28;5032318;28;20061;-60
2023/04/29 07:41:12;;;;;;;18.35;11.48;;;;;;;11.07;100.00;101697.66;5032053;28;20511;-60
2023/04/29 07:43:40;;;;;;;21.23;11.48;;;;;;;11.15;100.00;101704.22;5032622;28;20539;-61
2023/04/29 07:46:09;;;;;;;19.30;11.98;;;;;;;11.15;100.00;101714.75;5034154;28;20041;-60
2023/04/29 07:48:38;;;;;;;20.33;11.95;;;;;;;11.20;100.00;101719.75;5034226;28;20395;-60
2023/04/29 07:51:07;;;;;;;20.70;11.25;;;;;;;11.20;100.00;101719.75;5032848;28;20049;-60
2023/04/29 07:53:35;;;;;;;18.23;10.65;;;;;;;11.38;100.00;101724.97;5034022;28;20136;-60
2023/04/29 07:56:07;;;;;;;18.10;10.82;;;;;;;11.47;100.00;101732.38;5033945;28;20046;-60
2023/04/29 07:58:36;;;;;;;16.07;10.90;;;;;;;11.55;100.00;101735.44;5032839;28;20057;-60
2023/04/29 08:01:08;;;;;;;19.27;10.43;;;;;;;11.62;100.00;101728.88;5032728;28;20050;-60
2023/04/29 08:03:40;;;;;;;17.17;10.25;;;;;;;11.70;100.00;101733.75;5033817;28;20520;-60
2023/04/29 08:06:09;;;;;;;16.50;9.85;;;;;;;11.90;100.00;101744.94;5031280;28;20041;-60
2023/04/29 08:08:37;;;;;;;17.65;9.85;;;;;;;11.85;100.00;101747.84;5032124;28;20112;-60
2023/04/29 08:11:07;;;;;;;15.05;9.52;;;;;;;11.92;100.00;101749.19;5031915;28;20392;-60
2023/04/29 08:13:35;;;;;;;19.55;10.02;;;;;;;11.95;100.00;101748.19;5031779;28;20056;-60
2023/04/29 08:16:05;;;;;;;14.65;9.40;;;;;;;12.12;100.00;101752.50;5031416;28;20049;-60
2023/04/29 08:18:33;;;;;;;16.23;9.32;;;;;;;12.21;100.00;101749.34;5031955;28;20488;-60
2023/04/29 08:21:02;;;;;;;14.90;9.52;;;;;;;12.35;100.00;101756.44;5033776;28;20112;-60
2023/04/29 08:23:30;;;;;;;17.13;9.10;;;;;;;12.43;100.00;101759.47;5033669;28;20041;-60
2023/04/29 08:25:59;;;;;;;17.23;9.43;;;;;;;12.50;100.00;101765.25;5033610;28;20731;-60
2023/04/29 08:28:28;;;;;;;15.30;9.75;;;;;;;12.54;100.00;101764.13;5033439;28;20366;-62
2023/04/29 08:30:56;;;;;;;16.42;9.07;;;;;;;12.76;100.00;101762.88;5031921;28;20057;-61
2023/04/29 08:33:24;;;;;;;12.88;8.82;;;;;;;12.84;100.00;101763.25;5031969;28;20436;-61
2023/04/29 08:35:58;;;;;;;14.68;8.90;;;;;;;12.92;100.00;101771.56;5032045;28;20065;-60
2023/04/29 08:38:27;;;;;;;16.98;8.93;;;;;;;12.98;100.00;101773.84;5032547;28;20524;-61
2023/04/29 08:40:58;;;;;;;13.75;8.88;;;;;;;13.11;100.00;101767.81;5031588;28;20462;-60
2023/04/29 08:43:28;;;;;;;16.38;8.82;;;;;;;13.21;100.00;101770.72;5032055;28;20084;-60
2023/04/29 08:45:59;;;;;;;15.38;8.95;;;;;;;13.19;100.00;101774.31;5033221;28;20046;-61
2023/04/29 08:48:28;;;;;;;14.88;8.82;;;;;;;13.32;100.00;101773.53;5032519;28;20060;-62
2023/04/29 08:50:57;;;;;;;12.65;8.40;;;;;;;13.48;100.00;101769.06;5031591;28;20076;-61
2023/04/29 08:53:26;;;;;;;17.70;8.93;;;;;;;13.68;100.00;101766.94;5032017;28;20382;-61
2023/04/29 08:55:55;;;;;;;13.98;8.80;;;;;;;13.78;100.00;101775.97;5031658;28;20095;-62
2023/04/29 08:58:30;;;;;;;17.10;9.20;;;;;;;13.82;100.00;101779.28;5031321;28;20087;-62
2023/04/29 09:00:58;;;;;;;14.40;8.65;;;;;;;14.06;100.00;101776.84;5029569;28;20416;-61
2023/04/29 09:03:30;;;;;;;15.52;8.88;;;;;;;14.01;100.00;101777.13;5031821;28;20054;-60
2023/04/29 09:06:01;;;;;;;13.90;8.73;;;;;;;14.04;100.00;101778.72;5030555;28;20481;-60
2023/04/29 09:08:30;;;;;;;13.93;9.13;;;;;;;14.35;100.00;101780.22;5031577;28;20111;-61
2023/04/29 09:10:59;;;;;;;12.63;8.48;;;;;;;14.65;100.00;101781.78;5031217;28;20111;-60
2023/04/29 09:13:28;;;;;;;13.38;8.30;;;;;;;14.93;100.00;101784.34;5031393;28;20056;-60
2023/04/29 09:15:58;;;;;;;15.70;8.38;;;;;;;15.00;100.00;101781.19;5030584;28;20400;-61
2023/04/29 09:18:42;;;;;;;14.38;8.25;;;;;;;15.26;100.00;101789.13;5032692;28;20493;-61
2023/04/29 09:21:18;;;;;;;13.52;8.50;;;;;;;15.44;100.00;101784.31;5030686;28;20049;-61
2023/04/29 09:23:51;;;;;;;13.70;7.60;;;;;;;15.77;100.00;101779.38;5031370;28;20049;-60
2023/04/29 09:26:19;;;;;;;13.10;8.65;;;;;;;16.01;100.00;101788.22;5030176;28;20054;-60
2023/04/29 09:28:48;;;;;;;14.18;8.48;;;;;;;16.20;100.00;101782.41;5032156;28;20048;-62
2023/04/29 09:31:27;;;;;;;12.27;8.73;;;;;;;16.12;100.00;101786.59;5031409;28;20045;-60
2023/04/29 09:33:58;;;;;;;16.67;8.60;;;;;;;16.11;100.00;101792.84;5032639;28;20041;-61
2023/04/29 09:36:40;;;;;;;11.95;7.68;;;;;;;16.29;100.00;101798.59;5032673;28;20468;-61
2023/04/29 09:39:11;;;;;;;11.07;6.93;;;;;;;16.12;100.00;101802.50;5032865;28;20515;-61
2023/04/29 09:41:40;;;;;;;11.70;7.32;;;;;;;16.32;100.00;101801.88;5031341;28;20745;-61
2023/04/29 09:44:10;;;;;;;12.65;7.28;;;;;;;16.18;100.00;101805.56;5032512;28;20045;-61
2023/04/29 09:46:39;;;;;;;12.02;7.35;;;;;;;16.12;100.00;101806.00;5031300;28;20064;-61
2023/04/29 09:49:23;;;;;;;12.43;7.20;;;;;;;16.26;100.00;101806.78;5031142;28;20117;-61
2023/04/29 09:51:53;;;;;;;11.57;7.00;;;;;;;16.13;100.00;101806.84;5026740;28;20045;-61
2023/04/29 09:54:22;;;;;;;12.20;6.75;;;;;;;16.39;100.00;101811.06;5033930;28;20041;-61
2023/04/29 09:56:52;;;;;;;10.18;6.50;;;;;;;16.23;100.00;101803.38;5030228;28;20077;-61
2023/04/29 09:59:21;;;;;;;11.05;6.20;;;;;;;16.26;100.00;101804.97;5031150;28;20060;-61
2023/04/29 10:01:52;;;;;;;11.38;6.88;;;;;;;16.22;100.00;101807.03;5028621;28;20037;-61
2023/04/29 10:04:22;;;;;;;12.57;6.72;;;;;;;16.21;100.00;101802.69;5033917;28;20069;-61
2023/04/29 10:06:54;;;;;;;10.35;6.20;;;;;;;16.36;100.00;101808.66;5033733;28;20045;-61
2023/04/29 10:09:24;;;;;;;12.98;6.88;;;;;;;16.21;100.00;101804.47;5035848;28;20055;-63
2023/04/29 10:11:53;;;;;;;11.27;6.03;;;;;;;16.49;100.00;101816.53;5034132;28;20053;-61
2023/04/29 10:14:23;;;;;;;10.27;6.32;;;;;;;16.41;100.00;101804.81;5032884;28;20037;-62
2023/04/29 10:17:02;;;;;;;10.13;5.85;;;;;;;16.46;100.00;101818.59;5033544;28;20136;-61
2023/04/29 10:19:38;;;;;;;12.65;6.65;;;;;;;16.19;100.00;101815.19;5033664;28;20065;-61
2023/04/29 10:22:13;;;;;;;11.13;6.13;;;;;;;16.35;100.00;101822.03;5033750;28;20053;-61
2023/04/29 10:24:43;;;;;;;10.10;6.28;;;;;;;16.26;100.00;101815.59;5033672;28;20061;-62
2023/04/29 10:27:13;;;;;;;10.30;6.20;;;;;;;16.25;100.00;101811.22;5032545;28;20377;-63
2023/04/29 10:29:43;;;;;;;13.48;6.47;;;;;;;16.46;100.00;101806.16;5032241;28;20060;-63
2023/04/29 10:32:14;;;;;;;12.77;6.40;;;;;;;16.46;100.00;101810.63;5031918;28;20045;-59
2023/04/29 10:34:43;;;;;;;9.70;5.40;;;;;;;16.33;99.41;101814.19;5026953;28;20065;-58
2023/04/29 10:37:12;;;;;;;10.40;5.95;;;;;;;16.22;97.18;101817.66;5011436;28;20077;-63
2023/04/29 10:39:48;;;;;;;10.25;5.35;;;;;;;16.16;98.85;101812.78;5014239;28;20492;-64
2023/04/29 10:42:25;;;;;;;10.23;5.60;;;;;;;16.42;100.00;101817.97;5015589;28;20080;-61
2023/04/29 10:45:23;;;;;;;10.60;5.78;;;;;;;16.78;100.00;101817.94;5014481;28;20050;-63
2023/04/29 10:48:14;;;;;;;11.43;5.93;;;;;;;16.84;96.36;101826.31;5015551;28;20046;-62
2023/04/29 10:51:04;;;;;;;11.13;6.07;;;;;;;16.88;96.37;101821.63;5015676;28;20088;-61
2023/04/29 10:53:33;;;;;;;11.05;6.07;;;;;;;16.91;96.89;101821.41;5013013;28;20054;-61
2023/04/29 10:56:07;;;;;;;8.95;5.28;;;;;;;17.03;99.33;101824.94;5013973;28;20049;-61
2023/04/29 10:58:42;;;;;;;9.50;5.18;;;;;;;16.84;96.33;101828.97;5012727;28;20042;-61
2023/04/29 11:01:12;;;;;;;8.88;5.03;;;;;;;16.95;95.31;101836.16;5015094;28;20046;-62
2023/04/29 11:03:57;;;;;;;9.05;5.13;;;;;;;16.66;97.69;101828.56;5013758;28;20448;-62
2023/04/29 11:06:38;;;;;;;9.82;5.47;;;;;;;16.63;100.00;101826.09;5014404;28;20097;-62
2023/04/29 11:09:10;;;;;;;9.93;5.40;;;;;;;16.64;97.01;101827.81;5016071;28;20539;-62
2023/04/29 11:12:01;;;;;;;8.90;4.82;;;;;;;16.64;97.70;101832.28;5015256;28;20049;-60
2023/04/29 11:14:32;;;;;;;7.78;4.68;;;;;;;16.54;96.95;101829.47;5015393;28;20053;-60
2023/04/29 11:17:02;;;;;;;9.50;4.38;;;;;;;16.37;93.20;101828.94;5015292;28;20393;-60
2023/04/29 11:19:36;;;;;;;9.90;4.53;;;;;;;16.53;90.57;101827.78;5013526;28;20481;-60
2023/04/29 11:22:24;;;;;;;7.75;4.15;;;;;;;16.73;92.46;101828.94;5013686;28;20042;-61